sensor_id;sensor_type;location;lat;lon;timestamp;pressure;altitude;pressure_sealevel;temperature;humidity
28181;BME280;15464;50.988;10.318;2023-04-07T00:01:31;99023.97;;;0.71;67.81
28181;BME280;15464;50.988;10.318;2023-04-07T00:03:58;99024.72;;;0.75;69.67
28181;BME280;15464;50.988;10.318;2023-04-07T00:06:25;99033.34;;;0.75;69.74
28181;BME280;15464;50.988;10.318;2023-04-07T00:08:53;99029.09;;;0.74;70.10
28181;BME280;15464;50.988;10.318;2023-04-07T00:11:19;99029.34;;;0.68;69.52
28181;BME280;15464;50.988;10.318;2023-04-07T00:13:46;99019.19;;;0.62;69.55
28181;BME280;15464;50.988;10.318;2023-04-07T00:16:13;99028.03;;;0.58;70.28
28181;BME280;15464;50.988;10.318;2023-04-07T00:18:40;99026.50;;;0.54;70.12
28181;BME280;15464;50.988;10.318;2023-04-07T00:21:06;99026.59;;;0.51;69.20
28181;BME280;15464;50.988;10.318;2023-04-07T00:23:33;99011.03;;;0.50;70.56
28181;BME280;15464;50.988;10.318;2023-04-07T00:26:00;99025.06;;;0.47;70.56
28181;BME280;15464;50.988;10.318;2023-04-07T00:28:27;99016.31;;;0.48;70.77
28181;BME280;15464;50.988;10.318;2023-04-07T00:30:53;99020.97;;;0.42;71.37
28181;BME280;15464;50.988;10.318;2023-04-07T00:33:20;99017.44;;;0.43;71.79
28181;BME280;15464;50.988;10.318;2023-04-07T00:35:47;99017.94;;;0.51;74.74
28181;BME280;15464;50.988;10.318;2023-04-07T00:38:13;99019.84;;;0.47;73.33
28181;BME280;15464;50.988;10.318;2023-04-07T00:40:40;99023.34;;;0.46;73.45
28181;BME280;15464;50.988;10.318;2023-04-07T00:43:07;99016.59;;;0.42;73.32
28181;BME280;15464;50.988;10.318;2023-04-07T00:45:35;99015.22;;;0.33;72.54
28181;BME280;15464;50.988;10.318;2023-04-07T00:48:02;99006.78;;;0.27;72.37
28181;BME280;15464;50.988;10.318;2023-04-07T00:50:28;99018.28;;;0.23;72.59
28181;BME280;15464;50.988;10.318;2023-04-07T00:52:55;99014.25;;;0.16;72.07
28181;BME280;15464;50.988;10.318;2023-04-07T00:55:22;99012.69;;;0.12;71.81
28181;BME280;15464;50.988;10.318;2023-04-07T00:57:49;99010.06;;;0.12;71.26
28181;BME280;15464;50.988;10.318;2023-04-07T01:00:17;99010.25;;;0.07;72.14
28181;BME280;15464;50.988;10.318;2023-04-07T01:02:45;99019.13;;;0.03;72.53
28181;BME280;15464;50.988;10.318;2023-04-07T01:05:37;99002.78;;;-0.01;72.49
28181;BME280;15464;50.988;10.318;2023-04-07T01:13:22;99004.91;;;-0.10;72.56
28181;BME280;15464;50.988;10.318;2023-04-07T01:15:53;99000.53;;;-0.10;72.54
28181;BME280;15464;50.988;10.318;2023-04-07T01:18:28;98999.88;;;-0.15;73.49
28181;BME280;15464;50.988;10.318;2023-04-07T01:21:02;98995.94;;;-0.25;75.23
28181;BME280;15464;50.988;10.318;2023-04-07T01:26:36;98999.72;;;-0.32;75.05
28181;BME280;15464;50.988;10.318;2023-04-07T01:29:36;98992.03;;;-0.35;74.79
28181;BME280;15464;50.988;10.318;2023-04-07T01:32:04;98993.91;;;-0.38;75.04
28181;BME280;15464;50.988;10.318;2023-04-07T01:34:32;98995.78;;;-0.42;75.18
28181;BME280;15464;50.988;10.318;2023-04-07T01:37:01;98995.91;;;-0.45;75.67
28181;BME280;15464;50.988;10.318;2023-04-07T01:39:29;98987.31;;;-0.47;75.12
28181;BME280;15464;50.988;10.318;2023-04-07T01:41:56;98993.38;;;-0.47;74.42
28181;BME280;15464;50.988;10.318;2023-04-07T01:44:25;98988.88;;;-0.43;75.08
28181;BME280;15464;50.988;10.318;2023-04-07T01:46:53;98990.72;;;-0.45;75.06
28181;BME280;15464;50.988;10.318;2023-04-07T01:49:22;98989.97;;;-0.49;74.12
28181;BME280;15464;50.988;10.318;2023-04-07T01:51:50;98993.56;;;-0.51;73.88
28181;BME280;15464;50.988;10.318;2023-04-07T01:54:18;98992.09;;;-0.58;73.96
28181;BME280;15464;50.988;10.318;2023-04-07T01:56:45;98989.50;;;-0.58;74.16
28181;BME280;15464;50.988;10.318;2023-04-07T01:59:12;98989.50;;;-0.58;76.98
28181;BME280;15464;50.988;10.318;2023-04-07T02:01:39;98991.44;;;-0.63;76.80
28181;BME280;15464;50.988;10.318;2023-04-07T02:06:55;98989.13;;;-0.71;76.42
28181;BME280;15464;50.988;10.318;2023-04-07T02:09:25;98988.28;;;-0.71;75.74
28181;BME280;15464;50.988;10.318;2023-04-07T02:11:56;98986.47;;;-0.69;75.64
28181;BME280;15464;50.988;10.318;2023-04-07T02:14:24;98979.44;;;-0.67;75.50
28181;BME280;15464;50.988;10.318;2023-04-07T02:16:51;98983.88;;;-0.69;76.16
28181;BME280;15464;50.988;10.318;2023-04-07T02:19:19;98985.78;;;-0.74;76.48
28181;BME280;15464;50.988;10.318;2023-04-07T02:21:47;98981.44;;;-0.74;75.98
28181;BME280;15464;50.988;10.318;2023-04-07T02:24:19;98984.88;;;-0.73;76.01
28181;BME280;15464;50.988;10.318;2023-04-07T02:26:46;98984.94;;;-0.75;75.77
28181;BME280;15464;50.988;10.318;2023-04-07T02:29:13;98979.81;;;-0.76;75.54
28181;BME280;15464;50.988;10.318;2023-04-07T02:31:40;98977.97;;;-0.74;76.14
28181;BME280;15464;50.988;10.318;2023-04-07T02:34:06;98983.41;;;-0.81;78.72
28181;BME280;15464;50.988;10.318;2023-04-07T02:36:33;98979.44;;;-0.89;77.68
28181;BME280;15464;50.988;10.318;2023-04-07T02:39:00;98976.78;;;-0.88;76.39
28181;BME280;15464;50.988;10.318;2023-04-07T02:41:26;98978.44;;;-0.87;75.62
28181;BME280;15464;50.988;10.318;2023-04-07T02:43:53;98973.13;;;-0.84;76.89
28181;BME280;15464;50.988;10.318;2023-04-07T02:46:20;98979.91;;;-0.79;76.55
28181;BME280;15464;50.988;10.318;2023-04-07T02:48:47;98986.97;;;-0.82;75.83
28181;BME280;15464;50.988;10.318;2023-04-07T02:51:14;98985.97;;;-0.79;78.18
28181;BME280;15464;50.988;10.318;2023-04-07T02:53:40;98983.19;;;-0.74;77.70
28181;BME280;15464;50.988;10.318;2023-04-07T02:56:07;98983.19;;;-0.74;77.47
28181;BME280;15464;50.988;10.318;2023-04-07T02:58:34;98984.03;;;-0.74;78.01
28181;BME280;15464;50.988;10.318;2023-04-07T03:01:00;98977.97;;;-0.74;77.64
28181;BME280;15464;50.988;10.318;2023-04-07T03:03:27;98983.06;;;-0.71;79.31
28181;BME280;15464;50.988;10.318;2023-04-07T03:05:54;98979.44;;;-0.67;78.96
28181;BME280;15464;50.988;10.318;2023-04-07T03:08:21;98974.88;;;-0.62;78.65
28181;BME280;15464;50.988;10.318;2023-04-07T03:10:47;98979.09;;;-0.58;78.64
28181;BME280;15464;50.988;10.318;2023-04-07T03:13:14;98977.25;;;-0.56;78.47
28181;BME280;15464;50.988;10.318;2023-04-07T03:15:44;98977.13;;;-0.53;78.59
28181;BME280;15464;50.988;10.318;2023-04-07T03:18:11;98973.63;;;-0.52;77.91
28181;BME280;15464;50.988;10.318;2023-04-07T03:20:38;98971.72;;;-0.49;78.82
28181;BME280;15464;50.988;10.318;2023-04-07T03:23:07;98965.56;;;-0.46;78.86
28181;BME280;15464;50.988;10.318;2023-04-07T03:25:34;98968.09;;;-0.45;79.15
28181;BME280;15464;50.988;10.318;2023-04-07T03:28:01;98969.88;;;-0.45;79.16
28181;BME280;15464;50.988;10.318;2023-04-07T03:30:27;98965.50;;;-0.45;78.84
28181;BME280;15464;50.988;10.318;2023-04-07T03:32:54;98969.72;;;-0.42;79.36
28181;BME280;15464;50.988;10.318;2023-04-07T03:35:21;98967.00;;;-0.39;78.29
28181;BME280;15464;50.988;10.318;2023-04-07T03:37:48;98961.84;;;-0.41;78.67
28181;BME280;15464;50.988;10.318;2023-04-07T03:40:15;98958.28;;;-0.38;78.87
28181;BME280;15464;50.988;10.318;2023-04-07T03:42:42;98955.69;;;-0.38;79.17
28181;BME280;15464;50.988;10.318;2023-04-07T03:45:08;98960.09;;;-0.40;78.98
28181;BME280;15464;50.988;10.318;2023-04-07T03:47:35;98962.69;;;-0.40;78.74
28181;BME280;15464;50.988;10.318;2023-04-07T03:50:03;98967.78;;;-0.37;78.91
28181;BME280;15464;50.988;10.318;2023-04-07T03:52:29;98961.81;;;-0.39;79.34
28181;BME280;15464;50.988;10.318;2023-04-07T03:54:56;98957.50;;;-0.40;78.74
28181;BME280;15464;50.988;10.318;2023-04-07T03:57:23;98957.75;;;-0.46;79.10
28181;BME280;15464;50.988;10.318;2023-04-07T03:59:49;98962.94;;;-0.46;79.58
28181;BME280;15464;50.988;10.318;2023-04-07T04:02:17;98949.88;;;-0.45;79.36
28181;BME280;15464;50.988;10.318;2023-04-07T04:04:44;98953.19;;;-0.41;80.40
28181;BME280;15464;50.988;10.318;2023-04-07T04:07:11;98956.41;;;-0.56;83.15
28181;BME280;15464;50.988;10.318;2023-04-07T04:09:38;98955.69;;;-0.60;83.49
28181;BME280;15464;50.988;10.318;2023-04-07T04:12:04;98954.97;;;-0.63;83.18
28181;BME280;15464;50.988;10.318;2023-04-07T04:14:31;98958.25;;;-0.58;82.32
28181;BME280;15464;50.988;10.318;2023-04-07T04:16:58;98960.84;;;-0.58;81.57
28181;BME280;15464;50.988;10.318;2023-04-07T04:19:24;98961.50;;;-0.53;80.80
28181;BME280;15464;50.988;10.318;2023-04-07T04:21:51;98960.22;;;-0.43;81.24
28181;BME280;15464;50.988;10.318;2023-04-07T04:24:18;98950.84;;;-0.47;81.53
28181;BME280;15464;50.988;10.318;2023-04-07T04:26:45;98951.63;;;-0.45;81.59
28181;BME280;15464;50.988;10.318;2023-04-07T04:29:11;98945.50;;;-0.44;80.74
28181;BME280;15464;50.988;10.318;2023-04-07T04:31:38;98949.19;;;-0.50;81.71
28181;BME280;15464;50.988;10.318;2023-04-07T04:34:05;98951.75;;;-0.48;81.86
28181;BME280;15464;50.988;10.318;2023-04-07T04:36:32;98946.66;;;-0.51;82.29
28181;BME280;15464;50.988;10.318;2023-04-07T04:38:59;98948.44;;;-0.52;81.86
28181;BME280;15464;50.988;10.318;2023-04-07T04:41:25;98956.28;;;-0.53;81.88
28181;BME280;15464;50.988;10.318;2023-04-07T04:43:52;98960.91;;;-0.60;82.18
28181;BME280;15464;50.988;10.318;2023-04-07T04:46:19;98954.25;;;-0.67;82.83
28181;BME280;15464;50.988;10.318;2023-04-07T04:48:45;98944.63;;;-0.65;82.67
28181;BME280;15464;50.988;10.318;2023-04-07T04:51:12;98954.78;;;-0.59;81.94
28181;BME280;15464;50.988;10.318;2023-04-07T04:53:39;98959.19;;;-0.61;82.01
28181;BME280;15464;50.988;10.318;2023-04-07T04:56:06;98959.00;;;-0.56;81.31
28181;BME280;15464;50.988;10.318;2023-04-07T04:58:33;98963.31;;;-0.55;81.16
28181;BME280;15464;50.988;10.318;2023-04-07T05:01:00;98955.44;;;-0.54;80.54
28181;BME280;15464;50.988;10.318;2023-04-07T05:03:27;98959.81;;;-0.54;80.10
28181;BME280;15464;50.988;10.318;2023-04-07T05:05:54;98960.66;;;-0.54;80.07
28181;BME280;15464;50.988;10.318;2023-04-07T05:08:21;98961.50;;;-0.53;81.59
28181;BME280;15464;50.988;10.318;2023-04-07T05:10:48;98969.31;;;-0.53;81.37
28181;BME280;15464;50.988;10.318;2023-04-07T05:13:15;98962.22;;;-0.50;81.17
28181;BME280;15464;50.988;10.318;2023-04-07T05:15:41;98962.22;;;-0.50;80.92
28181;BME280;15464;50.988;10.318;2023-04-07T05:18:08;98968.41;;;-0.52;81.08
28181;BME280;15464;50.988;10.318;2023-04-07T05:20:35;98959.59;;;-0.50;80.52
28181;BME280;15464;50.988;10.318;2023-04-07T05:23:02;98965.81;;;-0.52;80.09
28181;BME280;15464;50.988;10.318;2023-04-07T05:25:28;98968.41;;;-0.52;79.91
28181;BME280;15464;50.988;10.318;2023-04-07T05:27:57;98966.59;;;-0.50;80.37
28181;BME280;15464;50.988;10.318;2023-04-07T05:30:25;98973.44;;;-0.48;80.43
28181;BME280;15464;50.988;10.318;2023-04-07T05:32:52;98969.13;;;-0.49;80.76
28181;BME280;15464;50.988;10.318;2023-04-07T05:35:19;98966.47;;;-0.47;80.78
28181;BME280;15464;50.988;10.318;2023-04-07T05:37:46;98966.34;;;-0.44;80.86
28181;BME280;15464;50.988;10.318;2023-04-07T05:40:12;98969.88;;;-0.45;81.78
28181;BME280;15464;50.988;10.318;2023-04-07T05:42:40;98964.41;;;-0.39;80.87
28181;BME280;15464;50.988;10.318;2023-04-07T05:45:08;98965.13;;;-0.35;80.60
28181;BME280;15464;50.988;10.318;2023-04-07T05:47:35;98976.38;;;-0.35;80.60
28181;BME280;15464;50.988;10.318;2023-04-07T05:50:01;98971.19;;;-0.35;80.70
28181;BME280;15464;50.988;10.318;2023-04-07T05:52:28;98975.34;;;-0.31;80.76
28181;BME280;15464;50.988;10.318;2023-04-07T05:54:55;98970.91;;;-0.29;80.95
28181;BME280;15464;50.988;10.318;2023-04-07T05:57:21;98985.41;;;-0.22;81.12
28181;BME280;15464;50.988;10.318;2023-04-07T05:59:48;98981.69;;;-0.16;81.08
28181;BME280;15464;50.988;10.318;2023-04-07T06:02:15;98979.88;;;-0.14;80.66
28181;BME280;15464;50.988;10.318;2023-04-07T06:04:42;98988.66;;;-0.17;80.99
28181;BME280;15464;50.988;10.318;2023-04-07T06:07:08;98988.47;;;-0.12;80.36
28181;BME280;15464;50.988;10.318;2023-04-07T06:09:35;98984.84;;;-0.08;80.62
28181;BME280;15464;50.988;10.318;2023-04-07T06:12:02;98985.44;;;-0.02;80.17
28181;BME280;15464;50.988;10.318;2023-04-07T06:14:32;98992.19;;;0.03;80.10
28181;BME280;15464;50.988;10.318;2023-04-07T06:16:58;98994.69;;;0.06;80.57
28181;BME280;15464;50.988;10.318;2023-04-07T06:19:25;98997.78;;;0.14;80.15
28181;BME280;15464;50.988;10.318;2023-04-07T06:21:55;98988.16;;;0.16;80.05
28181;BME280;15464;50.988;10.318;2023-04-07T06:24:22;98995.78;;;0.20;79.80
28181;BME280;15464;50.988;10.318;2023-04-07T06:26:53;98992.84;;;0.28;79.70
28181;BME280;15464;50.988;10.318;2023-04-07T06:29:20;98992.47;;;0.37;79.44
28181;BME280;15464;50.988;10.318;2023-04-07T06:31:47;98991.25;;;0.44;78.70
28181;BME280;15464;50.988;10.318;2023-04-07T06:34:13;98991.78;;;0.52;78.57
28181;BME280;15464;50.988;10.318;2023-04-07T06:36:40;98992.28;;;0.60;78.76
28181;BME280;15464;50.988;10.318;2023-04-07T06:39:07;98980.66;;;0.67;78.93
28181;BME280;15464;50.988;10.318;2023-04-07T06:41:34;98987.78;;;0.82;78.47
28181;BME280;15464;50.988;10.318;2023-04-07T06:44:00;98978.78;;;0.90;77.67
28181;BME280;15464;50.988;10.318;2023-04-07T06:46:27;98986.03;;;1.02;78.05
28181;BME280;15464;50.988;10.318;2023-04-07T06:48:54;98987.31;;;1.12;77.85
28181;BME280;15464;50.988;10.318;2023-04-07T06:51:21;98991.19;;;1.22;78.18
28181;BME280;15464;50.988;10.318;2023-04-07T06:53:47;98991.69;;;1.30;77.43
28181;BME280;15464;50.988;10.318;2023-04-07T06:56:15;98987.72;;;1.40;77.05
28181;BME280;15464;50.988;10.318;2023-04-07T06:58:41;98987.13;;;1.52;76.40
28181;BME280;15464;50.988;10.318;2023-04-07T07:01:08;98981.28;;;1.65;76.49
28181;BME280;15464;50.988;10.318;2023-04-07T07:03:35;98979.84;;;1.76;76.20
28181;BME280;15464;50.988;10.318;2023-04-07T07:06:02;98977.41;;;1.90;76.46
28181;BME280;15464;50.988;10.318;2023-04-07T07:08:29;98973.56;;;2.15;77.13
28181;BME280;15464;50.988;10.318;2023-04-07T07:10:56;98981.59;;;2.44;76.98
28181;BME280;15464;50.988;10.318;2023-04-07T07:13:24;98980.75;;;2.77;76.36
28181;BME280;15464;50.988;10.318;2023-04-07T07:15:52;98977.06;;;3.12;75.14
28181;BME280;15464;50.988;10.318;2023-04-07T07:18:19;98977.50;;;3.52;71.95
28181;BME280;15464;50.988;10.318;2023-04-07T07:20:45;98973.63;;;3.89;69.83
28181;BME280;15464;50.988;10.318;2023-04-07T07:23:12;98973.44;;;4.22;70.29
28181;BME280;15464;50.988;10.318;2023-04-07T07:25:39;98975.28;;;4.50;69.90
28181;BME280;15464;50.988;10.318;2023-04-07T07:28:06;98979.31;;;4.83;69.04
28181;BME280;15464;50.988;10.318;2023-04-07T07:30:32;98977.31;;;5.15;68.74
28181;BME280;15464;50.988;10.318;2023-04-07T07:32:59;98976.22;;;5.46;68.79
28181;BME280;15464;50.988;10.318;2023-04-07T07:35:26;98974.22;;;5.77;67.65
28181;BME280;15464;50.988;10.318;2023-04-07T07:37:52;98973.59;;;6.13;67.40
28181;BME280;15464;50.988;10.318;2023-04-07T07:40:19;98970.28;;;6.36;66.07
28181;BME280;15464;50.988;10.318;2023-04-07T07:42:46;98971.56;;;6.68;65.44
28181;BME280;15464;50.988;10.318;2023-04-07T07:45:13;98970.56;;;6.95;64.99
28181;BME280;15464;50.988;10.318;2023-04-07T07:47:40;98972.31;;;7.19;62.24
28181;BME280;15464;50.988;10.318;2023-04-07T07:50:07;98966.94;;;7.21;62.78
28181;BME280;15464;50.988;10.318;2023-04-07T07:52:34;98975.09;;;7.54;62.31
28181;BME280;15464;50.988;10.318;2023-04-07T07:55:01;98970.59;;;7.91;61.40
28181;BME280;15464;50.988;10.318;2023-04-07T07:57:28;98962.13;;;8.10;60.48
28181;BME280;15464;50.988;10.318;2023-04-07T07:59:56;98967.19;;;8.37;59.93
28181;BME280;15464;50.988;10.318;2023-04-07T08:02:23;98967.44;;;8.56;56.12
28181;BME280;15464;50.988;10.318;2023-04-07T08:04:56;98968.91;;;8.60;56.87
28181;BME280;15464;50.988;10.318;2023-04-07T08:07:23;98964.47;;;8.61;56.62
28181;BME280;15464;50.988;10.318;2023-04-07T08:09:50;98958.34;;;8.82;57.32
28181;BME280;15464;50.988;10.318;2023-04-07T08:12:16;98961.94;;;8.81;56.68
28181;BME280;15464;50.988;10.318;2023-04-07T08:14:43;98964.34;;;8.96;55.86
28181;BME280;15464;50.988;10.318;2023-04-07T08:17:10;98968.56;;;8.98;56.74
28181;BME280;15464;50.988;10.318;2023-04-07T08:19:38;98964.47;;;8.94;56.72
28181;BME280;15464;50.988;10.318;2023-04-07T08:22:05;98961.47;;;8.76;56.74
28181;BME280;15464;50.988;10.318;2023-04-07T08:24:31;98961.22;;;8.79;57.78
28181;BME280;15464;50.988;10.318;2023-04-07T08:26:58;98960.75;;;8.97;56.84
28181;BME280;15464;50.988;10.318;2023-04-07T08:29:25;98966.16;;;9.06;57.38
28181;BME280;15464;50.988;10.318;2023-04-07T08:31:51;98967.59;;;9.10;56.80
28181;BME280;15464;50.988;10.318;2023-04-07T08:34:18;98965.81;;;9.11;57.00
28181;BME280;15464;50.988;10.318;2023-04-07T08:36:46;98963.41;;;8.85;57.22
28181;BME280;15464;50.988;10.318;2023-04-07T08:39:13;98968.81;;;8.73;58.51
28181;BME280;15464;50.988;10.318;2023-04-07T08:41:41;98965.78;;;8.66;59.07
28181;BME280;15464;50.988;10.318;2023-04-07T08:44:09;98968.91;;;8.71;58.74
28181;BME280;15464;50.988;10.318;2023-04-07T08:46:37;98974.47;;;8.90;58.96
28181;BME280;15464;50.988;10.318;2023-04-07T08:49:08;98970.84;;;8.80;57.36
28181;BME280;15464;50.988;10.318;2023-04-07T08:51:45;98964.94;;;8.77;58.02
28181;BME280;15464;50.988;10.318;2023-04-07T08:54:15;98970.72;;;8.82;57.67
28181;BME280;15464;50.988;10.318;2023-04-07T08:56:44;98965.31;;;8.83;57.58
28181;BME280;15464;50.988;10.318;2023-04-07T08:59:12;98965.56;;;8.80;57.72
28181;BME280;15464;50.988;10.318;2023-04-07T09:01:40;98966.28;;;8.82;58.08
28181;BME280;15464;50.988;10.318;2023-04-07T09:04:09;98967.22;;;8.81;58.32
28181;BME280;15464;50.988;10.318;2023-04-07T09:06:36;98966.03;;;8.85;58.84
28181;BME280;15464;50.988;10.318;2023-04-07T09:09:03;98974.19;;;8.82;58.93
28181;BME280;15464;50.988;10.318;2023-04-07T09:11:38;98963.41;;;8.85;58.73
28181;BME280;15464;50.988;10.318;2023-04-07T09:14:05;98973.88;;;8.98;58.33
28181;BME280;15464;50.988;10.318;2023-04-07T09:16:33;98970.13;;;9.12;57.53
28181;BME280;15464;50.988;10.318;2023-04-07T09:19:00;98966.28;;;9.16;56.38
28181;BME280;15464;50.988;10.318;2023-04-07T09:21:46;98974.69;;;9.21;56.78
28181;BME280;15464;50.988;10.318;2023-04-07T09:24:27;98978.53;;;9.28;56.84
28181;BME280;15464;50.988;10.318;2023-04-07T09:27:15;98962.88;;;9.25;58.69
28181;BME280;15464;50.988;10.318;2023-04-07T09:29:45;98964.09;;;9.32;57.16
28181;BME280;15464;50.988;10.318;2023-04-07T09:32:33;98963.78;;;9.57;55.18
28181;BME280;15464;50.988;10.318;2023-04-07T09:35:01;98963.91;;;9.67;54.42
28181;BME280;15464;50.988;10.318;2023-04-07T09:37:28;98961.44;;;9.75;54.05
28181;BME280;15464;50.988;10.318;2023-04-07T09:39:55;98956.72;;;9.90;53.96
28181;BME280;15464;50.988;10.318;2023-04-07T09:42:21;98958.13;;;9.94;52.92
28181;BME280;15464;50.988;10.318;2023-04-07T09:44:48;98956.31;;;10.05;54.13
28181;BME280;15464;50.988;10.318;2023-04-07T09:47:15;98953.13;;;10.23;53.47
28181;BME280;15464;50.988;10.318;2023-04-07T09:49:53;98957.94;;;10.38;52.33
28181;BME280;15464;50.988;10.318;2023-04-07T09:52:24;98948.78;;;10.42;52.80
28181;BME280;15464;50.988;10.318;2023-04-07T09:54:50;98956.25;;;10.37;52.68
28181;BME280;15464;50.988;10.318;2023-04-07T09:57:19;98946.19;;;10.52;53.30
28181;BME280;15464;50.988;10.318;2023-04-07T09:59:46;98942.44;;;10.55;51.11
28181;BME280;15464;50.988;10.318;2023-04-07T10:02:14;98943.81;;;10.49;51.40
28181;BME280;15464;50.988;10.318;2023-04-07T10:04:41;98937.50;;;10.71;51.62
28181;BME280;15464;50.988;10.318;2023-04-07T10:07:09;98936.72;;;10.80;50.94
28181;BME280;15464;50.988;10.318;2023-04-07T10:09:36;98942.59;;;10.83;50.95
28181;BME280;15464;50.988;10.318;2023-04-07T10:12:03;98938.63;;;10.99;52.97
28181;BME280;15464;50.988;10.318;2023-04-07T10:14:31;98940.56;;;11.06;50.13
28181;BME280;15464;50.988;10.318;2023-04-07T10:17:02;98938.44;;;11.00;50.09
28181;BME280;15464;50.988;10.318;2023-04-07T10:19:33;98942.91;;;11.30;53.00
28181;BME280;15464;50.988;10.318;2023-04-07T10:22:01;98950.84;;;11.20;48.69
28181;BME280;15464;50.988;10.318;2023-04-07T10:27:22;98942.53;;;11.04;47.36
28181;BME280;15464;50.988;10.318;2023-04-07T10:29:53;98942.38;;;10.96;46.04
28181;BME280;15464;50.988;10.318;2023-04-07T10:32:20;98942.03;;;10.80;47.31
28181;BME280;15464;50.988;10.318;2023-04-07T10:37:17;98941.22;;;10.89;47.07
28181;BME280;15464;50.988;10.318;2023-04-07T10:42:45;98940.75;;;11.14;46.06
28181;BME280;15464;50.988;10.318;2023-04-07T10:45:14;98944.25;;;11.24;45.21
28181;BME280;15464;50.988;10.318;2023-04-07T10:50:29;98938.28;;;11.32;47.07
28181;BME280;15464;50.988;10.318;2023-04-07T10:55:37;98939.75;;;11.65;45.13
28181;BME280;15464;50.988;10.318;2023-04-07T11:03:23;98943.72;;;11.90;44.50
28181;BME280;15464;50.988;10.318;2023-04-07T11:05:51;98942.31;;;11.76;44.09
28181;BME280;15464;50.988;10.318;2023-04-07T11:08:40;98941.69;;;11.63;43.96
28181;BME280;15464;50.988;10.318;2023-04-07T11:11:09;98943.28;;;11.75;45.03
28181;BME280;15464;50.988;10.318;2023-04-07T11:13:46;98942.00;;;11.69;43.83
28181;BME280;15464;50.988;10.318;2023-04-07T11:16:15;98934.34;;;11.95;43.94
28181;BME280;15464;50.988;10.318;2023-04-07T11:18:43;98938.41;;;11.80;43.36
28181;BME280;15464;50.988;10.318;2023-04-07T11:21:09;98931.94;;;11.73;43.24
28181;BME280;15464;50.988;10.318;2023-04-07T11:23:44;98941.56;;;11.55;43.31
28181;BME280;15464;50.988;10.318;2023-04-07T11:26:13;98938.34;;;11.51;43.56
28181;BME280;15464;50.988;10.318;2023-04-07T11:28:51;98933.38;;;11.96;45.50
28181;BME280;15464;50.988;10.318;2023-04-07T11:33:56;98936.69;;;12.37;41.42
28181;BME280;15464;50.988;10.318;2023-04-07T11:36:29;98928.22;;;12.70;43.36
28181;BME280;15464;50.988;10.318;2023-04-07T11:38:58;98929.00;;;12.34;40.46
28181;BME280;15464;50.988;10.318;2023-04-07T11:41:27;98934.16;;;12.45;39.15
28181;BME280;15464;50.988;10.318;2023-04-07T11:44:05;98927.75;;;12.38;39.24
28181;BME280;15464;50.988;10.318;2023-04-07T11:46:32;98934.47;;;12.42;39.69
28181;BME280;15464;50.988;10.318;2023-04-07T11:49:10;98934.34;;;12.34;38.55
28181;BME280;15464;50.988;10.318;2023-04-07T11:51:36;98940.66;;;12.13;39.38
28181;BME280;15464;50.988;10.318;2023-04-07T11:54:03;98925.44;;;12.62;39.15
28181;BME280;15464;50.988;10.318;2023-04-07T11:56:44;98925.16;;;13.02;38.77
28181;BME280;15464;50.988;10.318;2023-04-07T11:59:22;98925.69;;;12.78;39.38
28181;BME280;15464;50.988;10.318;2023-04-07T12:01:50;98924.66;;;13.53;40.78
28181;BME280;15464;50.988;10.318;2023-04-07T12:04:17;98923.41;;;13.93;38.23
28181;BME280;15464;50.988;10.318;2023-04-07T12:06:47;98920.16;;;14.07;37.87
28181;BME280;15464;50.988;10.318;2023-04-07T12:09:33;98920.66;;;13.85;36.07
28181;BME280;15464;50.988;10.318;2023-04-07T12:12:03;98917.06;;;13.76;37.32
28181;BME280;15464;50.988;10.318;2023-04-07T12:14:34;98918.50;;;14.24;37.40
28181;BME280;15464;50.988;10.318;2023-04-07T12:17:01;98915.97;;;14.40;35.66
28181;BME280;15464;50.988;10.318;2023-04-07T12:19:30;98913.16;;;14.41;35.63
28181;BME280;15464;50.988;10.318;2023-04-07T12:22:02;98910.84;;;14.72;38.46
28181;BME280;15464;50.988;10.318;2023-04-07T12:24:29;98922.66;;;15.29;35.13
28181;BME280;15464;50.988;10.318;2023-04-07T12:26:57;98918.13;;;15.22;34.60
28181;BME280;15464;50.988;10.318;2023-04-07T12:29:25;98918.53;;;15.51;35.92
28181;BME280;15464;50.988;10.318;2023-04-07T12:31:51;98905.66;;;15.47;34.19
28181;BME280;15464;50.988;10.318;2023-04-07T12:34:18;98915.34;;;15.40;34.70
28181;BME280;15464;50.988;10.318;2023-04-07T12:36:45;98908.00;;;15.42;34.39
28181;BME280;15464;50.988;10.318;2023-04-07T12:39:11;98916.88;;;15.50;33.49
28181;BME280;15464;50.988;10.318;2023-04-07T12:41:38;98911.31;;;15.44;33.93
28181;BME280;15464;50.988;10.318;2023-04-07T12:44:05;98913.31;;;15.33;33.06
28181;BME280;15464;50.988;10.318;2023-04-07T12:46:32;98916.59;;;15.53;34.20
28181;BME280;15464;50.988;10.318;2023-04-07T12:48:59;98913.22;;;15.09;33.13
28181;BME280;15464;50.988;10.318;2023-04-07T12:51:26;98919.91;;;14.79;33.67
28181;BME280;15464;50.988;10.318;2023-04-07T12:53:53;98921.53;;;14.46;34.42
28181;BME280;15464;50.988;10.318;2023-04-07T12:56:20;98913.19;;;14.49;34.55
28181;BME280;15464;50.988;10.318;2023-04-07T12:58:49;98919.44;;;14.84;34.50
28181;BME280;15464;50.988;10.318;2023-04-07T13:01:16;98919.88;;;15.05;34.50
28181;BME280;15464;50.988;10.318;2023-04-07T13:03:43;98903.22;;;15.19;34.91
28181;BME280;15464;50.988;10.318;2023-04-07T13:06:10;98912.13;;;15.28;34.04
28181;BME280;15464;50.988;10.318;2023-04-07T13:08:38;98914.25;;;15.16;33.91
28181;BME280;15464;50.988;10.318;2023-04-07T13:11:05;98912.53;;;15.07;34.71
28181;BME280;15464;50.988;10.318;2023-04-07T13:13:33;98913.84;;;15.03;33.49
28181;BME280;15464;50.988;10.318;2023-04-07T13:15:59;98902.75;;;15.24;34.27
28181;BME280;15464;50.988;10.318;2023-04-07T13:18:26;98911.41;;;15.60;33.94
28181;BME280;15464;50.988;10.318;2023-04-07T13:20:53;98904.06;;;15.62;33.47
28181;BME280;15464;50.988;10.318;2023-04-07T13:23:39;98902.28;;;15.37;33.62
28181;BME280;15464;50.988;10.318;2023-04-07T13:26:09;98891.69;;;15.53;33.56
28181;BME280;15464;50.988;10.318;2023-04-07T13:28:37;98891.63;;;15.45;32.91
28181;BME280;15464;50.988;10.318;2023-04-07T13:31:04;98890.91;;;16.25;33.70